• Join FlightAware (Why Join?)
  • Login
  • US Flag 
10:39PM EDT


 

Airport Tracker/Info


-or-


 

Live Flight TrackerFlight Track Log ✈ AAY136 ✈ 01-May-2013 ✈ KIWA - KFAR

Flight Track Log - Related Links

Times and Time Zones

All times are in EDT time to prevent confusion due to time zone crossing. See the AAY136 flight status page for this flight to view local times or setup timezone preferences in your user account.

Time Position Orientation Groundspeed Altitude Reporting Facility
EDT Latitude Longitude Course Direction KTS MPH feet Rate Location/Type
01:35PM 33.3230 -111.6710 317° Northwest 184 212 2,300  Level FlightAware
01:35PM 33.3290 -111.6740 337° Northwest 186 214 2,700 2,100 Climbing FlightAware
01:36PM 33.3580 -111.6440 41° Northeast 235 270 3,900 1,260 Climbing FlightAware
01:36PM 33.3530 -111.6200 104° East 231 266 4,000 300 Climbing FlightAware
01:37PM 33.3350 -111.5950 131° Southeast 228 262 4,200 1,380 Climbing FlightAware
01:37PM 33.3190 -111.5720 130° Southeast 241 277 5,300 3,060 Climbing FlightAware
01:37PM 33.3110 -111.5440 109° East 239 275 6,500 3,060 Climbing FlightAware
01:38PM 33.3270 -111.5080 62° Northeast 247 284 7,600 2,820 Climbing FlightAware
01:38PM 33.3420 -111.4960 34° Northeast 253 291 8,400 2,520 Climbing FlightAware
01:38PM 33.3700 -111.4780 28° Northeast 273 314 9,300 1,800 Climbing FlightAware
01:39PM 33.3990 -111.4740 North 286 329 9,900 900 Climbing FlightAware
01:40PM 33.4620 -111.4760 358° North 293 337 10,400 1,020 Climbing FlightAware
01:40PM 33.5200 -111.4980 342° North 339 390 11,400 1,920 Climbing FlightAware
01:41PM 33.5830 -111.5250 340° North 354 407 13,200 2,400 Climbing FlightAware
01:41PM 33.6310 -111.5460 340° North 361 415 14,400 2,700 Climbing FlightAware
01:42PM 33.6950 -111.5740 340° North 363 418 16,400 2,760 Climbing FlightAware
01:43PM 33.7610 -111.6020 341° North 368 423 18,100 2,280 Climbing FlightAware
01:44PM 33.8360 -111.6340 340° North 384 442 19,700 2,400 Climbing FlightAware
01:44PM 33.9030 -111.6630 340° North 383 441 21,500 2,280 Climbing FlightAware
01:45PM 33.9810 -111.6880 345° North 397 457 23,000 1,680 Climbing FlightAware
01:46PM 34.0490 -111.6960 354° North 413 475 23,900 1,620 Climbing FlightAware
01:46PM 34.1120 -111.6920 North 424 488 24,900 1,860 Climbing FlightAware
01:47PM 34.1860 -111.6600 20° North 441 507 26,100 1,860 Climbing FlightAware
01:47PM 34.2510 -111.6010 37° Northeast 445 512 27,400 1,620 Climbing FlightAware
01:48PM 34.3260 -111.5330 37° Northeast 455 524 28,400 1,320 Climbing FlightAware
01:49PM 34.4050 -111.4620 37° Northeast 461 531 29,500 1,320 Climbing FlightAware
01:50PM 34.4790 -111.3940 37° Northeast 466 536 30,500 1,620 Climbing FlightAware
01:50PM 34.5510 -111.3280 37° Northeast 463 533 31,800 1,740 Climbing FlightAware
01:51PM 34.6270 -111.2580 37° Northeast 459 528 33,000 1,440 Climbing FlightAware
01:52PM 34.6930 -111.1970 37° Northeast 461 531 33,900 1,200 Climbing FlightAware
01:53PM 34.7600 -111.1360 37° Northeast 461 531 34,700 720 Climbing FlightAware
01:53PM 34.8370 -111.0650 37° Northeast 462 532 35,000 180 Climbing FlightAware
01:54PM 34.9080 -110.9990 37° Northeast 463 533 35,000  Level FlightAware
01:55PM 34.9790 -110.9330 37° Northeast 464 534 35,000  Level FlightAware
01:55PM 35.0520 -110.8650 37° Northeast 467 537 35,000  Level FlightAware
01:56PM 35.1190 -110.8030 37° Northeast 469 540 35,000  Level FlightAware
01:57PM 35.2070 -110.7210 37° Northeast 473 544 35,000  Level FlightAware
01:57PM 35.2500 -110.6810 37° Northeast 473 544 35,000  Level FlightAware
01:58PM 35.3290 -110.6060 38° Northeast 472 543 35,000  Level FlightAware
01:59PM 35.4010 -110.5390 37° Northeast 472 543 35,000  Level FlightAware
01:59PM 35.4600 -110.4840 37° Northeast 472 543 35,000 480 Level FlightAware
02:00PM 35.5650 -110.3850 37° Northeast 474 545 35,800 480 Climbing FlightAware
02:01PM 35.6250 -110.3300 37° Northeast 474 545 35,800  Level FlightAware
02:02PM 35.6840 -110.2750 37° Northeast 474 545 35,800  Level FlightAware
02:02PM 35.7440 -110.2190 37° Northeast 474 545 35,800  Level FlightAware
02:03PM 35.8030 -110.1640 37° Northeast 474 545 35,800  Level FlightAware
02:04PM 35.8630 -110.1090 37° Northeast 474 545 35,800  Level FlightAware
02:05PM 35.9370 -110.0390 37° Northeast 474 545 35,800  Level FlightAware
02:05PM 35.9970 -109.9840 37° Northeast 474 545 35,800  Level FlightAware
02:06PM 36.0560 -109.9280 37° Northeast 474 545 35,800  Level FlightAware
02:07PM 36.1160 -109.8730 37° Northeast 474 545 35,800  Level FlightAware
02:07PM 36.1900 -109.8030 37° Northeast 474 545 35,800  Level FlightAware
02:08PM 36.2500 -109.7480 36° Northeast 474 545 35,800  Level FlightAware
02:09PM 36.3090 -109.6920 37° Northeast 474 545 35,800  Level FlightAware
02:09PM 36.3690 -109.6360 37° Northeast 474 545 35,800 840 Level FlightAware
02:10PM 36.5639 -109.4231 37° Northeast 471 542 37,000 660 Climbing Denver Center
02:11PM 36.6644 -109.3242 38° Northeast 476 548 37,000  Level Denver Center
02:12PM 36.7633 -109.2267 38° Northeast 472 543 37,000  Level Denver Center
02:13PM 36.8800 -109.1111 38° Northeast 477 549 37,000  Level Denver Center
02:14PM 36.9631 -109.0292 38° Northeast 476 548 37,000  Level Denver Center
02:15PM 37.0956 -108.8969 39° Northeast 475 547 37,000  Level Denver Center
02:16PM 37.1950 -108.7983 38° Northeast 474 545 37,000  Level Denver Center
02:17PM 37.3117 -108.6814 39° Northeast 480 552 37,000  Level Denver Center
02:18PM 37.4117 -108.5814 38° Northeast 480 552 37,000  Level Denver Center
02:24PM 38.0350 -107.9460 38° Northeast 483 556 37,000  Level FlightAware
02:25PM 38.0990 -107.8800 39° Northeast 493 567 37,000  Level FlightAware
02:26PM 38.1730 -107.8030 39° Northeast 493 567 37,000  Level FlightAware
02:26PM 38.2340 -107.7410 39° Northeast 493 567 37,000  Level FlightAware
02:27PM 38.3200 -107.6510 39° Northeast 486 559 37,000  Level FlightAware
02:28PM 38.3940 -107.5740 39° Northeast 484 557 37,000  Level FlightAware
02:29PM 38.4710 -107.4930 39° Northeast 483 556 37,000  Level FlightAware
02:29PM 38.5300 -107.4320 39° Northeast 483 556 37,000  Level FlightAware
02:29PM 38.5780 -107.3810 40° Northeast 502 578 37,000  Level FlightAware ADS-B
02:30PM 38.6300 -107.3260 40° Northeast 500 575 37,000  Level FlightAware
02:30PM 38.6576 -107.2970 39° Northeast 499 574 37,000  Level FlightAware ADS-B
02:31PM 38.7127 -107.2390 39° Northeast 500 575 37,000  Level FlightAware ADS-B
02:31PM 38.7675 -107.1810 40° Northeast 501 577 37,000  Level FlightAware ADS-B
02:32PM 38.8221 -107.1230 40° Northeast 502 578 37,000 60 Level FlightAware ADS-B
02:32PM 38.8767 -107.0650 40° Northeast 500 575 37,100  Climbing FlightAware ADS-B
02:33PM 38.9489 -106.9880 40° Northeast 499 574 37,000 -120 Descending FlightAware ADS-B
02:34PM 39.0161 -106.9170 39° Northeast 501 577 37,000  Level FlightAware ADS-B
02:34PM 39.0708 -106.8580 40° Northeast 501 577 37,000  Level FlightAware ADS-B
02:35PM 39.1253 -106.8000 40° Northeast 501 577 37,000  Level FlightAware ADS-B
02:35PM 39.1798 -106.7410 40° Northeast 501 577 37,000  Level FlightAware ADS-B
02:36PM 39.2353 -106.6810 40° Northeast 505 581 37,000  Level FlightAware ADS-B
02:36PM 39.2897 -106.6220 40° Northeast 509 586 37,000 60 Level FlightAware ADS-B
02:37PM 39.3426 -106.5650 40° Northeast 511 588 37,100 60 Climbing FlightAware ADS-B
02:37PM 39.3990 -106.5040 40° Northeast 508 585 37,100  Level FlightAware ADS-B
02:38PM 39.4545 -106.4430 40° Northeast 508 585 37,100 -120 Level FlightAware ADS-B
02:38PM 39.5112 -106.3820 40° Northeast 508 585 37,000 -120 Descending FlightAware ADS-B
02:39PM 39.5655 -106.3230 40° Northeast 510 587 37,000  Level FlightAware ADS-B
02:39PM 39.6204 -106.2630 40° Northeast 511 588 37,000  Level FlightAware ADS-B
02:40PM 39.6814 -106.1960 40° Northeast 511 588 37,000  Level FlightAware ADS-B
02:40PM 39.7369 -106.1350 40° Northeast 510 587 37,000  Level FlightAware ADS-B
02:41PM 39.7909 -106.0760 40° Northeast 513 590 37,000  Level FlightAware ADS-B
02:41PM 39.8462 -106.0150 40° Northeast 515 593 37,000  Level FlightAware ADS-B
02:42PM 39.9013 -105.9540 40° Northeast 517 595 37,000  Level FlightAware ADS-B
02:42PM 39.9612 -105.8880 40° Northeast 518 596 37,000  Level FlightAware ADS-B
02:43PM 40.0234 -105.8190 40° Northeast 518 596 37,000  Level FlightAware ADS-B
02:43PM 40.0740 -105.7630 40° Northeast 518 596 37,000  Level FlightAware
02:43PM 40.0887 -105.7460 41° Northeast 518 596 37,000  Level FlightAware ADS-B
02:44PM 40.1460 -105.6820 40° Northeast 518 596 37,000  Level FlightAware
02:44PM 40.1676 -105.6580 40° Northeast 518 596 37,000  Level FlightAware ADS-B
02:45PM 40.2341 -105.5840 40° Northeast 517 595 37,000  Level FlightAware ADS-B
02:45PM 40.3030 -105.5060 41° Northeast 511 588 37,000 60 Level FlightAware
02:46PM 40.3397 -105.4650 40° Northeast 512 589 37,100  Climbing FlightAware ADS-B
02:46PM 40.3944 -105.4030 41° Northeast 510 587 37,000 -120 Descending FlightAware ADS-B
02:47PM 40.4500 -105.3400 41° Northeast 510 587 37,000  Level FlightAware ADS-B
02:47PM 40.5148 -105.2670 41° Northeast 511 588 37,000  Level FlightAware ADS-B
02:48PM 40.5671 -105.2080 41° Northeast 510 587 37,000  Level FlightAware ADS-B
02:48PM 40.6243 -105.1420 41° Northeast 511 588 37,000  Level FlightAware ADS-B
02:49PM 40.6783 -105.0800 41° Northeast 511 588 37,000  Level FlightAware ADS-B
02:49PM 40.7333 -105.0180 40° Northeast 513 590 37,000  Level FlightAware ADS-B
02:50PM 40.7875 -104.9560 41° Northeast 514 592 37,000  Level FlightAware ADS-B
02:50PM 40.8418 -104.8930 41° Northeast 514 592 37,000  Level FlightAware ADS-B
02:51PM 40.8961 -104.8310 41° Northeast 515 593 37,000  Level FlightAware ADS-B
02:51PM 40.9504 -104.7680 41° Northeast 517 595 37,000  Level FlightAware ADS-B
02:52PM 41.0049 -104.7050 41° Northeast 519 597 37,000  Level FlightAware ADS-B
02:53PM 41.0736 -104.6260 41° Northeast 520 598 37,000  Level FlightAware ADS-B
02:53PM 41.1288 -104.5620 41° Northeast 521 600 37,000  Level FlightAware ADS-B
02:54PM 41.1828 -104.4990 41° Northeast 520 598 37,000  Level FlightAware ADS-B
02:54PM 41.2371 -104.4350 42° Northeast 521 600 37,000  Level FlightAware ADS-B
02:55PM 41.2918 -104.3710 41° Northeast 522 601 37,000  Level FlightAware ADS-B
02:55PM 41.3490 -104.3040 41° Northeast 523 602 37,000  Level FlightAware ADS-B
02:56PM 41.4019 -104.2420 41° Northeast 521 600 37,000  Level FlightAware ADS-B
02:56PM 41.4587 -104.1750 41° Northeast 520 598 37,000  Level FlightAware ADS-B
02:57PM 41.5134 -104.1110 41° Northeast 519 597 37,000  Level FlightAware ADS-B
02:57PM 41.5679 -104.0460 42° Northeast 521 600 37,000  Level FlightAware ADS-B
02:58PM 41.6228 -103.9810 42° Northeast 523 602 37,000  Level FlightAware ADS-B
02:58PM 41.6776 -103.9160 42° Northeast 524 603 37,000  Level FlightAware ADS-B
02:59PM 41.7417 -103.8390 42° Northeast 526 605 37,000  Level FlightAware ADS-B
02:59PM 41.7978 -103.7720 42° Northeast 527 606 37,000  Level FlightAware ADS-B
03:00PM 41.8536 -103.7050 42° Northeast 530 610 37,000  Level FlightAware ADS-B
03:00PM 41.9085 -103.6390 42° Northeast 532 612 37,000  Level FlightAware ADS-B
03:01PM 41.9664 -103.5690 42° Northeast 533 613 37,000  Level FlightAware ADS-B
03:01PM 42.0228 -103.5010 42° Northeast 535 616 37,000 60 Level FlightAware ADS-B
03:02PM 42.0889 -103.4210 42° Northeast 534 615 37,100 60 Climbing FlightAware ADS-B
03:02PM 42.1442 -103.3540 42° Northeast 534 615 37,100 -120 Level FlightAware ADS-B
03:03PM 42.2365 -103.2420 42° Northeast 533 613 37,000 -120 Descending FlightAware ADS-B
03:04PM 42.2942 -103.1710 42° Northeast 533 613 37,000  Level FlightAware ADS-B
03:04PM 42.3497 -103.1030 42° Northeast 532 612 37,000  Level FlightAware ADS-B
03:05PM 42.4030 -103.0370 42° Northeast 531 611 37,000  Level FlightAware
03:05PM 42.4321 -103.0020 42° Northeast 532 612 37,000  Level FlightAware ADS-B
03:06PM 42.4892 -102.9310 43° Northeast 532 612 37,000  Level FlightAware ADS-B
03:06PM 42.5442 -102.8630 42° Northeast 532 612 37,000  Level FlightAware ADS-B
03:07PM 42.6501 -102.7310 42° Northeast 529 609 37,000  Level FlightAware ADS-B
03:08PM 42.7039 -102.6640 42° Northeast 530 610 37,000  Level FlightAware ADS-B
03:08PM 42.7597 -102.5950 42° Northeast 529 609 37,000  Level FlightAware ADS-B
03:09PM 42.7928 -102.5531 42° Northeast 530 610 37,000  Level Minneapolis Center
03:09PM 42.8542 -102.4753 43° Northeast 529 609 37,000  Level Denver Center
03:10PM 42.9756 -102.3222 43° Northeast 533 613 37,000  Level Denver Center
03:11PM 43.0625 -102.2136 42° Northeast 533 613 37,000  Level Denver Center
03:12PM 43.2017 -102.0375 43° Northeast 536 617 37,000  Level Denver Center
03:13PM 43.3044 -101.9022 44° Northeast 538 619 37,000  Level Denver Center
03:14PM 43.4008 -101.7794 43° Northeast 535 616 37,000  Level Denver Center
03:15PM 43.5317 -101.6106 43° Northeast 537 618 37,000  Level Denver Center
03:16PM 43.6408 -101.4694 43° Northeast 537 618 37,000 -60 Level Denver Center
03:17PM 43.7494 -101.3264 44° Northeast 541 623 36,900 -480 Descending Denver Center
03:18PM 43.8158 -101.2408 43° Northeast 541 623 36,300 -600 Descending Minneapolis Center
03:19PM 43.9250 -101.0978 43° Northeast 542 624 36,000 -180 Descending Minneapolis Center
03:20PM 44.0325 -100.9533 44° Northeast 540 621 36,000  Level Minneapolis Center
03:21PM 44.1411 -100.8092 44° Northeast 540 621 36,000  Level Minneapolis Center
03:22PM 44.2503 -100.6628 44° Northeast 543 625 36,100  Climbing Minneapolis Center
03:23PM 44.3578 -100.5169 44° Northeast 542 624 36,000 -60 Descending Minneapolis Center
03:24PM 44.4675 -100.3711 43° Northeast 543 625 36,000  Level Minneapolis Center
03:25PM 44.5969 -100.1939 44° Northeast 544 626 36,000  Level Minneapolis Center
03:26PM 44.7061 -100.0456 44° Northeast 546 628 36,000  Level Minneapolis Center
03:27PM 44.8136 -99.8969 44° Northeast 548 631 36,000  Level Minneapolis Center
03:28PM 44.9206 -99.7481 45° Northeast 551 634 36,000  Level Minneapolis Center
03:29PM 45.0275 -99.5986 45° Northeast 552 635 36,000 -540 Level Minneapolis Center
03:30PM 45.1581 -99.4167 44° Northeast 553 636 34,900 -1,320 Descending Minneapolis Center
03:31PM 45.2664 -99.2633 45° Northeast 554 638 33,300 -1,320 Descending Minneapolis Center
03:32PM 45.3769 -99.1078 45° Northeast 558 642 32,300 -1,020 Descending Minneapolis Center
03:33PM 45.4842 -98.9550 45° Northeast 551 634 31,300 -1,500 Descending Minneapolis Center
03:34PM 45.5900 -98.8089 44° Northeast 538 619 29,300 -1,920 Descending Minneapolis Center
03:35PM 45.6889 -98.6661 45° Northeast 516 594 27,400 -1,920 Descending Minneapolis Center
03:36PM 45.7858 -98.5272 45° Northeast 499 574 25,400 -1,680 Descending Minneapolis Center
03:37PM 45.8992 -98.3617 45° Northeast 488 562 24,000 -1,080 Descending Minneapolis Center
03:38PM 45.9928 -98.2200 46° Northeast 488 562 23,200 -1,320 Descending Minneapolis Center
03:39PM 46.0656 -98.0911 51° Northeast 483 556 21,400 -2,100 Descending Minneapolis Center
03:41PM 46.1678 -97.9208 49° Northeast 472 543 19,000 -1,800 Descending Minneapolis Center
03:42PM 46.2464 -97.7931 48° Northeast 442 509 17,700 -1,620 Descending Minneapolis Center
03:43PM 46.3192 -97.6658 50° Northeast 407 468 15,700 -1,800 Descending Minneapolis Center
03:44PM 46.3917 -97.5439 49° Northeast 381 438 14,100 -1,560 Descending Minneapolis Center
03:45PM 46.4556 -97.4358 49° Northeast 343 395 12,500 -1,800 Descending Minneapolis Center
03:46PM 46.5186 -97.3297 49° Northeast 333 383 10,500 -1,560 Descending Minneapolis Center
03:47PM 46.5656 -97.2339 55° Northeast 304 350 9,400 -1,320 Descending Minneapolis Center
03:48PM 46.6122 -97.1372 55° Northeast 284 327 7,900 -1,620 Descending Minneapolis Center
03:49PM 46.6583 -97.0431 54° Northeast 276 318 6,200 -1,320 Descending Minneapolis Center
03:50PM 46.7000 -96.9586 54° Northeast 244 281 5,200 -900 Descending Minneapolis Center
03:51PM 46.7356 -96.8861 54° Northeast 215 247 4,400 -900 Descending Minneapolis Center
03:52PM 46.7681 -96.8361 46° Northeast 183 211 3,400 -780 Descending Minneapolis Center
03:53PM 46.8125 -96.8172 16° North 161 185 2,900 -720 Descending Minneapolis Center
03:54PM 46.8531 -96.8172 360° North 141 162 2,000 -780 Descending Minneapolis Center
03:55PM 46.8839 -96.8164 North 111 128 1,400 -600 Descending Minneapolis Center
03:57PM 46.9167 -96.8000 46° Northeast  Level FlightAware Approximate
04:04PM 46.9207 -96.8158 46° Northeast  Level Estimated